createdAt,value
2018-01-24T00:01:37.940Z,75.70
2018-01-24T00:04:05.922Z,76.60
2018-01-24T00:06:33.944Z,77.40
2018-01-24T00:09:01.966Z,78.70
2018-01-24T00:11:29.968Z,77.50
2018-01-24T00:13:57.968Z,77.30
2018-01-24T00:16:25.980Z,77.50
2018-01-24T00:18:53.980Z,76.40
2018-01-24T00:21:22.743Z,76.40
2018-01-24T00:23:50.736Z,76.30
2018-01-24T00:26:18.736Z,76.10
2018-01-24T00:28:46.736Z,76.00
2018-01-24T00:31:15.513Z,77.10
2018-01-24T00:33:43.492Z,77.00
2018-01-24T00:36:11.502Z,76.50
2018-01-24T00:38:40.263Z,76.50
2018-01-24T00:41:08.281Z,76.50
2018-01-24T00:43:37.123Z,75.80
2018-01-24T00:46:05.911Z,76.40
2018-01-24T00:48:33.920Z,76.40
2018-01-24T00:51:01.930Z,77.20
2018-01-24T00:53:29.940Z,76.40
2018-01-24T00:55:58.709Z,77.40
2018-01-24T00:58:26.708Z,77.40
2018-01-24T01:00:54.723Z,77.60
2018-01-24T01:03:22.696Z,78.00
2018-01-24T01:05:50.694Z,76.80
2018-01-24T01:08:18.691Z,76.80
2018-01-24T01:10:46.676Z,77.50
2018-01-24T01:13:14.683Z,77.80
2018-01-24T01:15:42.683Z,78.50
2018-01-24T01:18:10.668Z,77.60
2018-01-24T01:20:39.478Z,78.00
2018-01-24T01:23:08.235Z,78.30
2018-01-24T01:25:36.237Z,77.80
2018-01-24T01:28:04.236Z,78.50
2018-01-24T01:30:33.021Z,78.60
2018-01-24T01:33:01.008Z,78.50
2018-01-24T01:35:29.012Z,78.50
2018-01-24T01:37:57.791Z,78.50
2018-01-24T01:40:27.287Z,78.50
2018-01-24T01:42:55.288Z,78.50
2018-01-24T01:45:23.358Z,79.00
2018-01-24T01:47:51.400Z,79.60
2018-01-24T01:50:20.208Z,80.20
2018-01-24T01:52:48.273Z,80.20
2018-01-24T01:55:17.084Z,80.40
2018-01-24T01:57:45.881Z,80.00
2018-01-24T02:00:14.705Z,80.00
2018-01-24T02:02:42.739Z,79.80
2018-01-24T02:05:10.773Z,79.80
2018-01-24T02:07:38.822Z,80.10
2018-01-24T02:10:06.881Z,80.30
2018-01-24T02:12:34.916Z,80.40
2018-01-24T02:15:02.995Z,79.20
2018-01-24T02:17:31.047Z,78.60
2018-01-24T02:19:59.069Z,79.00
2018-01-24T02:22:27.107Z,79.60
2018-01-24T02:24:55.156Z,80.10
2018-01-24T02:27:23.184Z,80.30
2018-01-24T02:29:51.253Z,80.10
2018-01-24T02:32:19.329Z,79.50
2018-01-24T02:34:47.348Z,79.50
2018-01-24T02:37:16.173Z,79.90
2018-01-24T02:39:44.221Z,79.80
2018-01-24T02:42:12.246Z,79.70
2018-01-24T02:44:40.290Z,80.00
2018-01-24T02:47:08.348Z,79.60
2018-01-24T02:49:37.311Z,80.00
2018-01-24T02:52:05.361Z,79.70
2018-01-24T02:54:33.437Z,80.20
2018-01-24T02:57:02.256Z,81.10
2018-01-24T02:59:31.068Z,80.50
2018-01-24T03:01:59.863Z,80.20
2018-01-24T03:04:28.685Z,80.70
2018-01-24T03:06:56.731Z,80.60
2018-01-24T03:09:24.761Z,80.30
2018-01-24T03:11:52.799Z,82.50
2018-01-24T03:14:20.856Z,82.30
2018-01-24T03:16:48.888Z,83.50
2018-01-24T03:19:17.701Z,84.70
2018-01-24T03:21:45.757Z,84.60
2018-01-24T03:24:13.798Z,85.10
2018-01-24T03:26:41.844Z,85.90
2018-01-24T03:29:10.664Z,88.30
2018-01-24T03:31:38.700Z,88.30
2018-01-24T03:34:06.739Z,88.70
2018-01-24T03:36:34.801Z,89.30
2018-01-24T03:39:03.616Z,90.20
2018-01-24T03:41:31.712Z,90.20
2018-01-24T03:43:59.758Z,90.10
2018-01-24T03:46:28.545Z,89.50
2018-01-24T03:48:56.587Z,89.50
2018-01-24T03:51:24.636Z,89.60
2018-01-24T03:53:53.441Z,89.70
2018-01-24T03:56:22.249Z,89.70
2018-01-24T03:58:50.288Z,89.80
2018-01-24T04:01:18.316Z,89.50
2018-01-24T04:03:46.372Z,89.40
2018-01-24T04:06:14.416Z,90.10
2018-01-24T04:08:42.440Z,90.70
2018-01-24T04:11:11.273Z,90.70
2018-01-24T04:13:39.312Z,90.70
2018-01-24T04:16:07.347Z,90.90
2018-01-24T04:18:35.420Z,90.80
2018-01-24T04:21:04.233Z,90.90
2018-01-24T04:23:32.282Z,90.80
2018-01-24T04:26:00.329Z,90.90
2018-01-24T04:28:28.396Z,91.40
2018-01-24T04:30:56.436Z,90.70
2018-01-24T04:33:25.251Z,90.80
2018-01-24T04:35:54.066Z,90.00
2018-01-24T04:38:22.101Z,90.00
2018-01-24T04:40:50.143Z,90.10
2018-01-24T04:43:18.187Z,90.20
2018-01-24T04:45:46.980Z,90.10
2018-01-24T04:48:15.036Z,90.10
2018-01-24T04:50:43.081Z,89.70
2018-01-24T04:53:11.115Z,89.70
2018-01-24T04:55:39.167Z,88.70
2018-01-24T04:58:07.218Z,89.10
2018-01-24T05:00:36.021Z,89.60
2018-01-24T05:03:04.846Z,89.60
2018-01-24T05:05:32.888Z,89.60
2018-01-24T05:08:00.919Z,90.10
2018-01-24T05:10:29.008Z,90.30
2018-01-24T05:12:57.057Z,90.50
2018-01-24T05:15:25.852Z,90.50
2018-01-24T05:17:54.668Z,90.60
2018-01-24T05:20:41.465Z,90.60
2018-01-24T05:23:09.512Z,90.50
2018-01-24T05:25:37.556Z,90.40
2018-01-24T05:28:06.361Z,90.80
2018-01-24T05:30:35.165Z,90.60
2018-01-24T05:33:03.215Z,90.60
2018-01-24T05:35:31.276Z,90.20
2018-01-24T05:37:59.341Z,90.00
2018-01-24T05:40:27.383Z,89.90
2018-01-24T05:42:56.185Z,89.50
2018-01-24T05:45:24.992Z,89.40
2018-01-24T05:47:53.808Z,89.30
2018-01-24T05:52:02.432Z,89.50
2018-01-24T05:54:31.260Z,88.80
2018-01-24T05:56:59.764Z,88.80
2018-01-24T05:59:27.801Z,87.80
2018-01-24T06:01:55.843Z,87.80
2018-01-24T06:04:23.876Z,87.80
2018-01-24T06:06:52.700Z,87.90
2018-01-24T06:09:20.748Z,87.80
2018-01-24T06:11:48.773Z,86.50
2018-01-24T06:14:16.817Z,86.20
2018-01-24T06:16:44.860Z,87.90
2018-01-24T06:19:12.900Z,87.70
2018-01-24T06:21:41.696Z,86.40
2018-01-24T06:24:09.745Z,86.40
2018-01-24T06:26:37.792Z,86.70
2018-01-24T06:29:05.819Z,86.50
2018-01-24T06:31:33.892Z,86.70
2018-01-24T06:34:01.965Z,85.90
2018-01-24T06:36:29.997Z,85.80
2018-01-24T06:38:58.208Z,86.50
2018-01-24T06:41:26.252Z,87.10
2018-01-24T06:43:54.285Z,87.50
2018-01-24T06:46:22.328Z,87.10
2018-01-24T06:48:50.372Z,86.20
2018-01-24T06:51:18.393Z,86.10
2018-01-24T06:53:46.439Z,85.60
2018-01-24T06:56:14.459Z,86.30
2018-01-24T06:58:42.503Z,86.50
2018-01-24T07:01:10.552Z,85.90
2018-01-24T07:03:39.335Z,85.00
2018-01-24T07:06:07.379Z,84.90
2018-01-24T07:08:35.434Z,84.70
2018-01-24T07:11:03.456Z,84.80
2018-01-24T07:13:43.260Z,84.70
2018-01-24T07:16:12.076Z,85.90
2018-01-24T07:18:40.109Z,85.20
2018-01-24T07:21:08.153Z,86.60
2018-01-24T07:23:36.202Z,85.80
2018-01-24T07:26:04.256Z,85.80
2018-01-24T07:28:32.308Z,85.50
2018-01-24T07:31:00.347Z,85.20
2018-01-24T07:33:28.381Z,85.40
2018-01-24T07:35:56.436Z,85.50
2018-01-24T07:38:25.258Z,85.50
2018-01-24T07:40:53.280Z,85.40
2018-01-24T07:43:21.337Z,84.90
2018-01-24T07:45:49.383Z,85.40
2018-01-24T07:48:18.172Z,85.60
2018-01-24T07:50:47.020Z,84.30
2018-01-24T07:53:15.067Z,84.30
2018-01-24T07:55:43.860Z,84.40
2018-01-24T07:58:11.911Z,84.40
2018-01-24T08:00:39.956Z,83.80
2018-01-24T08:03:08.080Z,84.10
2018-01-24T08:05:36.120Z,84.10
2018-01-24T08:08:04.928Z,84.10
2018-01-24T08:10:32.992Z,84.00
2018-01-24T08:13:01.819Z,84.50
2018-01-24T08:15:29.862Z,84.30
2018-01-24T08:17:57.929Z,83.90
2018-01-24T08:20:25.968Z,83.80
2018-01-24T08:22:54.004Z,83.10
2018-01-24T08:25:23.563Z,83.10
2018-01-24T08:27:51.604Z,83.10
2018-01-24T08:30:19.624Z,82.50
2018-01-24T08:32:47.684Z,82.20
2018-01-24T08:35:15.724Z,82.60
2018-01-24T08:37:43.813Z,82.70
2018-01-24T08:40:12.599Z,82.40
2018-01-24T08:42:40.636Z,82.20
2018-01-24T08:45:08.652Z,81.60
2018-01-24T08:47:36.695Z,82.80
2018-01-24T08:50:04.763Z,81.30
2018-01-24T08:52:32.799Z,81.50
2018-01-24T08:55:00.874Z,81.30
2018-01-24T08:57:29.688Z,80.40
2018-01-24T08:59:57.720Z,80.40
2018-01-24T09:02:25.768Z,80.90
2018-01-24T09:04:53.795Z,80.50
2018-01-24T09:07:21.839Z,80.60
2018-01-24T09:09:49.879Z,80.60
2018-01-24T09:12:18.667Z,80.50
2018-01-24T09:14:46.711Z,80.70
2018-01-24T09:17:14.740Z,80.00
2018-01-24T09:19:42.788Z,80.80
2018-01-24T09:22:10.852Z,79.40
2018-01-24T09:24:38.881Z,80.40
2018-01-24T09:27:06.924Z,78.40
2018-01-24T09:29:35.002Z,78.80
2018-01-24T09:32:03.066Z,78.70
2018-01-24T09:34:31.880Z,79.50
2018-01-24T09:36:59.911Z,79.30
2018-01-24T09:39:27.964Z,78.00
2018-01-24T09:41:55.988Z,78.70
2018-01-24T09:44:24.035Z,77.60
2018-01-24T09:46:52.080Z,77.30
2018-01-24T09:49:20.864Z,76.20
2018-01-24T09:51:48.931Z,76.10
2018-01-24T09:54:16.960Z,76.60
2018-01-24T09:56:45.008Z,75.20
2018-01-24T09:59:13.047Z,75.30
2018-01-24T10:01:41.072Z,74.80
2018-01-24T10:04:09.164Z,73.10
2018-01-24T10:06:37.184Z,75.50
2018-01-24T10:09:05.267Z,73.20
2018-01-24T10:11:33.320Z,73.00
2018-01-24T10:14:02.140Z,72.30
2018-01-24T10:16:30.980Z,71.70
2018-01-24T10:18:59.008Z,71.60
2018-01-24T10:21:27.056Z,70.50
2018-01-24T10:23:55.112Z,70.30
2018-01-24T10:26:23.148Z,70.40
2018-01-24T10:28:51.192Z,69.50
2018-01-24T10:31:19.236Z,68.70
2018-01-24T10:33:48.047Z,67.60
2018-01-24T10:36:16.872Z,67.60
2018-01-24T10:38:44.904Z,67.50
2018-01-24T10:41:12.956Z,67.90
2018-01-24T10:43:40.987Z,66.70
2018-01-24T10:46:09.816Z,65.80
2018-01-24T10:48:37.855Z,65.70
2018-01-24T10:51:07.416Z,65.50
2018-01-24T10:53:35.476Z,65.40
2018-01-24T10:56:04.272Z,67.10
2018-01-24T10:58:33.100Z,67.20
2018-01-24T11:01:01.165Z,66.40
2018-01-24T11:03:29.248Z,64.20
2018-01-24T11:05:57.352Z,65.00
2018-01-24T11:08:25.388Z,64.50
2018-01-24T11:10:53.456Z,65.30
2018-01-24T11:13:21.500Z,64.60
2018-01-24T11:15:49.564Z,64.60
2018-01-24T11:18:18.356Z,63.90
2018-01-24T11:20:46.408Z,63.80
2018-01-24T11:23:14.433Z,64.80
2018-01-24T11:25:43.251Z,62.10
2018-01-24T11:28:11.296Z,62.00
2018-01-24T11:30:39.346Z,62.20
2018-01-24T11:33:07.392Z,61.80
2018-01-24T11:35:36.208Z,63.60
2018-01-24T11:38:04.252Z,63.50
2018-01-24T11:40:32.311Z,63.10
2018-01-24T11:43:00.357Z,62.40
2018-01-24T11:45:28.404Z,64.70
2018-01-24T11:47:56.459Z,64.10
2018-01-24T11:50:24.532Z,64.70
2018-01-24T11:52:52.612Z,64.70
2018-01-24T11:55:20.647Z,63.40
2018-01-24T11:57:48.691Z,64.10
2018-01-24T12:00:16.736Z,64.70
2018-01-24T12:02:44.784Z,63.60
2018-01-24T12:05:12.820Z,64.70
2018-01-24T12:07:40.890Z,65.00
2018-01-24T12:10:09.732Z,61.40
2018-01-24T12:12:37.755Z,61.50
2018-01-24T12:15:05.832Z,59.50
2018-01-24T12:17:33.888Z,60.30
2018-01-24T12:20:01.942Z,59.80
2018-01-24T12:22:30.016Z,58.00
2018-01-24T12:24:58.136Z,58.30
2018-01-24T12:27:26.904Z,58.30
2018-01-24T12:29:54.956Z,58.20
2018-01-24T12:32:23.008Z,57.20
2018-01-24T12:34:51.041Z,58.00
2018-01-24T12:37:19.869Z,56.10
2018-01-24T12:39:47.901Z,56.10
2018-01-24T12:42:15.951Z,55.30
2018-01-24T12:44:43.996Z,55.20
2018-01-24T12:47:12.804Z,55.20
2018-01-24T12:49:41.619Z,54.20
2018-01-24T12:52:09.669Z,54.10
2018-01-24T12:54:37.704Z,55.20
2018-01-24T12:57:05.768Z,53.70
2018-01-24T12:59:33.851Z,54.10
2018-01-24T13:02:01.920Z,53.20
2018-01-24T13:04:30.724Z,52.80
2018-01-24T13:06:59.564Z,55.00
2018-01-24T13:09:27.622Z,54.90
2018-01-24T13:11:55.643Z,54.80
2018-01-24T13:14:23.702Z,56.40
2018-01-24T13:16:51.756Z,55.40
2018-01-24T13:19:20.559Z,55.20
2018-01-24T13:21:49.385Z,54.60
2018-01-24T13:24:17.435Z,54.60
2018-01-24T13:26:45.475Z,55.90
2018-01-24T13:29:13.520Z,56.40
2018-01-24T13:31:42.331Z,56.10
2018-01-24T13:34:10.367Z,56.10
2018-01-24T13:36:38.417Z,57.20
2018-01-24T13:39:06.472Z,57.10
2018-01-24T13:41:35.277Z,57.10
2018-01-24T13:44:04.102Z,57.00
2018-01-24T13:46:32.161Z,57.00
2018-01-24T13:49:00.973Z,56.90
2018-01-24T13:51:29.034Z,56.80
2018-01-24T13:53:57.869Z,58.10
2018-01-24T13:56:25.904Z,58.10
2018-01-24T13:58:53.976Z,58.50
2018-01-24T14:01:22.036Z,58.00
2018-01-24T14:03:50.079Z,58.00
2018-01-24T14:06:18.188Z,58.40
2018-01-24T14:08:46.235Z,57.40
2018-01-24T14:11:15.052Z,57.70
2018-01-24T14:13:43.895Z,57.50
2018-01-24T14:16:11.949Z,57.40
2018-01-24T14:18:40.010Z,57.80
2018-01-24T14:21:08.264Z,58.10
2018-01-24T14:23:36.316Z,57.00
2018-01-24T14:26:04.360Z,58.00
2018-01-24T14:28:33.227Z,58.50
2018-01-24T14:31:01.258Z,58.30
2018-01-24T14:33:30.056Z,58.10
2018-01-24T14:35:58.868Z,58.10
2018-01-24T14:38:26.912Z,58.10
2018-01-24T14:40:54.972Z,58.70
2018-01-24T14:43:23.218Z,59.10
2018-01-24T14:45:51.318Z,59.30
2018-01-24T14:48:19.696Z,59.20
2018-01-24T14:50:47.669Z,59.20
2018-01-24T14:53:15.704Z,59.40
2018-01-24T14:55:43.744Z,59.40
2018-01-24T14:58:12.596Z,60.40
2018-01-24T15:00:40.636Z,60.40
2018-01-24T15:03:09.436Z,59.90
2018-01-24T15:05:38.252Z,60.40
2018-01-24T15:08:06.307Z,61.10
2018-01-24T15:10:34.353Z,60.10
2018-01-24T15:13:02.410Z,60.40
2018-01-24T15:15:30.470Z,60.80
2018-01-24T15:17:59.282Z,61.20
2018-01-24T15:20:27.330Z,61.00
2018-01-24T15:22:55.399Z,61.40
2018-01-24T15:25:23.434Z,61.90
2018-01-24T15:27:51.489Z,62.70
2018-01-24T15:30:19.532Z,63.10
2018-01-24T15:32:47.598Z,64.50
2018-01-24T15:35:15.639Z,64.40
2018-01-24T15:37:43.684Z,64.30
2018-01-24T15:40:11.808Z,65.00
2018-01-24T15:42:39.853Z,64.30
2018-01-24T15:45:07.889Z,64.80
2018-01-24T15:47:36.728Z,65.90
2018-01-24T15:50:04.791Z,65.80
2018-01-24T15:52:33.005Z,66.80
2018-01-24T15:55:01.130Z,67.50
2018-01-24T15:57:29.867Z,67.60
2018-01-24T15:59:58.652Z,67.80
2018-01-24T16:02:26.711Z,67.80
2018-01-24T16:04:54.760Z,68.00
2018-01-24T16:07:22.792Z,68.30
2018-01-24T16:09:51.617Z,69.50
2018-01-24T16:12:19.667Z,69.40
2018-01-24T16:14:47.721Z,69.60
2018-01-24T16:17:15.756Z,69.80
2018-01-24T16:19:44.590Z,70.40
2018-01-24T16:22:12.653Z,70.30
2018-01-24T16:24:40.709Z,70.50
2018-01-24T16:27:08.734Z,71.20
2018-01-24T16:29:37.040Z,71.80
2018-01-24T16:32:05.101Z,72.30
2018-01-24T16:34:34.086Z,72.20
2018-01-24T16:37:02.920Z,74.30
2018-01-24T16:39:30.982Z,74.30
2018-01-24T16:41:59.781Z,74.90
2018-01-24T16:44:28.597Z,75.30
2018-01-24T16:46:56.629Z,75.30
2018-01-24T16:49:24.753Z,75.40
2018-01-24T16:51:53.570Z,75.90
2018-01-24T16:54:21.604Z,75.80
2018-01-24T16:56:49.656Z,76.30
2018-01-24T16:59:17.702Z,76.60
2018-01-24T17:01:46.503Z,77.40
2018-01-24T17:04:15.326Z,77.80
2018-01-24T17:06:43.374Z,78.40
2018-01-24T17:09:11.401Z,77.50
2018-01-24T17:11:39.457Z,77.80
2018-01-24T17:14:08.255Z,76.90
2018-01-24T17:16:37.049Z,76.70
2018-01-24T17:19:05.868Z,76.50
2018-01-24T17:21:33.913Z,76.50
2018-01-24T17:24:01.954Z,76.20
2018-01-24T17:26:30.070Z,76.30
2018-01-24T17:28:58.117Z,76.80
2018-01-24T17:31:26.144Z,77.10
2018-01-24T17:33:54.193Z,77.20
2018-01-24T17:36:22.252Z,77.10
2018-01-24T17:38:51.052Z,76.50
2018-01-24T17:41:19.096Z,76.40
2018-01-24T17:43:47.144Z,76.90
2018-01-24T17:46:15.177Z,77.50
2018-01-24T17:48:43.223Z,77.80
2018-01-24T17:51:11.268Z,78.00
2018-01-24T17:53:40.064Z,78.50
2018-01-24T17:56:08.948Z,78.60
2018-01-24T17:58:36.992Z,78.50
2018-01-24T18:01:05.045Z,79.40
2018-01-24T18:03:33.084Z,80.50
2018-01-24T18:06:01.921Z,79.60
2018-01-24T18:08:30.767Z,79.70
2018-01-24T18:10:58.816Z,79.70
2018-01-24T18:13:26.849Z,80.80
2018-01-24T18:15:54.913Z,79.90
2018-01-24T18:18:22.955Z,79.50
2018-01-24T18:20:51.751Z,80.10
2018-01-24T18:23:20.588Z,80.20
2018-01-24T18:25:48.649Z,80.10
2018-01-24T18:28:16.684Z,80.00
2018-01-24T18:30:44.746Z,80.80
2018-01-24T18:33:12.805Z,80.40
2018-01-24T18:35:41.604Z,80.70
2018-01-24T18:38:10.421Z,80.30
2018-01-24T18:40:38.482Z,80.30
2018-01-24T18:43:07.413Z,79.80
2018-01-24T18:45:35.530Z,79.80
2018-01-24T18:48:03.719Z,79.40
2018-01-24T18:50:31.761Z,79.40
2018-01-24T18:53:00.582Z,79.60
2018-01-24T18:55:28.604Z,79.10
2018-01-24T18:57:56.825Z,79.50
2018-01-24T19:00:24.884Z,79.20
2018-01-24T19:02:52.928Z,78.50
2018-01-24T19:05:20.969Z,77.90
2018-01-24T19:07:49.784Z,77.50
2018-01-24T19:10:17.844Z,77.50
2018-01-24T19:12:46.631Z,77.80
2018-01-24T19:15:14.676Z,77.60
2018-01-24T19:17:42.721Z,77.30
2018-01-24T19:20:11.528Z,76.40
2018-01-24T19:22:39.572Z,76.40
2018-01-24T19:25:07.668Z,76.30
2018-01-24T19:27:35.684Z,76.20
2018-01-24T19:30:03.744Z,76.30
2018-01-24T19:32:32.641Z,76.80
2018-01-24T19:35:00.695Z,76.10
2018-01-24T19:37:28.752Z,75.60
2018-01-24T19:39:56.787Z,75.50
2018-01-24T19:42:24.852Z,75.10
2018-01-24T19:44:52.892Z,75.00
2018-01-24T19:47:20.932Z,74.50
2018-01-24T19:49:49.020Z,74.40
2018-01-24T19:52:17.076Z,74.20
2018-01-24T19:54:45.104Z,74.30
2018-01-24T19:57:13.937Z,74.50
2018-01-24T19:59:41.993Z,74.50
2018-01-24T20:02:10.800Z,74.40
2018-01-24T20:04:39.617Z,73.30
2018-01-24T20:07:07.712Z,73.20
2018-01-24T20:09:35.785Z,73.60
2018-01-24T20:12:03.833Z,73.50
2018-01-24T20:14:31.920Z,72.70
2018-01-24T20:17:00.109Z,72.00
2018-01-24T20:19:28.201Z,72.20
2018-01-24T20:21:57.025Z,70.90
2018-01-24T20:24:25.064Z,70.90
2018-01-24T20:26:53.116Z,71.40
2018-01-24T20:29:21.152Z,70.90
2018-01-24T20:31:49.960Z,70.50
2018-01-24T20:34:18.764Z,70.30
2018-01-24T20:36:48.460Z,70.30
2018-01-24T20:39:18.010Z,69.80
2018-01-24T20:41:46.824Z,69.50
2018-01-24T20:44:14.884Z,69.50
2018-01-24T20:46:42.907Z,69.80
2018-01-24T20:49:10.956Z,69.40
2018-01-24T20:51:39.768Z,69.30
2018-01-24T20:54:08.597Z,68.70
2018-01-24T20:56:36.632Z,68.60
2018-01-24T20:59:04.740Z,69.30
2018-01-24T21:01:33.543Z,69.20
2018-01-24T21:04:02.376Z,69.20
2018-01-24T21:06:30.457Z,69.10
2018-01-24T21:08:58.494Z,69.50
2018-01-24T21:11:26.544Z,70.60
2018-01-24T21:13:54.588Z,71.70
2018-01-24T21:16:22.615Z,70.90
2018-01-24T21:18:50.677Z,70.90
2018-01-24T21:21:18.736Z,70.90
2018-01-24T21:23:46.768Z,70.90
2018-01-24T21:26:14.831Z,70.90
2018-01-24T21:28:54.559Z,70.90
2018-01-24T21:31:34.437Z,71.00
2018-01-24T21:34:14.434Z,71.00
2018-01-24T21:36:54.256Z,71.00
2018-01-24T21:39:22.328Z,71.00
2018-01-24T21:41:50.380Z,71.00
2018-01-24T21:44:18.420Z,70.70
2018-01-24T21:46:46.517Z,70.30
2018-01-24T21:49:14.547Z,70.20
2018-01-24T21:51:42.912Z,70.20
2018-01-24T21:54:11.036Z,70.10
2018-01-24T21:56:40.069Z,69.20
2018-01-24T21:59:08.256Z,69.30
2018-01-24T22:01:36.597Z,69.40
2018-01-24T22:04:04.746Z,69.10
2018-01-24T22:06:32.800Z,69.50
2018-01-24T22:09:00.843Z,69.30
2018-01-24T22:11:28.904Z,69.20
2018-01-24T22:13:56.936Z,69.30
2018-01-24T22:16:26.749Z,69.20
2018-01-24T22:18:54.859Z,69.10
2018-01-24T22:21:22.916Z,69.30
2018-01-24T22:23:50.969Z,69.00
2018-01-24T22:26:19.004Z,69.10
2018-01-24T22:28:47.076Z,68.50
2018-01-24T22:31:15.893Z,68.90
2018-01-24T22:33:43.951Z,68.70
2018-01-24T22:36:12.004Z,68.60
2018-01-24T22:38:40.054Z,68.10
2018-01-24T22:41:08.095Z,68.10
2018-01-24T22:43:37.648Z,68.10
2018-01-24T22:46:05.721Z,68.10
2018-01-24T22:48:34.662Z,68.00
2018-01-24T22:51:02.729Z,67.90
2018-01-24T22:53:30.784Z,68.20
2018-01-24T22:55:59.609Z,68.10
2018-01-24T22:58:28.414Z,67.90
2018-01-24T23:00:56.453Z,67.90
2018-01-24T23:03:24.505Z,67.90
2018-01-24T23:05:52.544Z,68.40
2018-01-24T23:08:21.332Z,67.80
2018-01-24T23:10:49.385Z,67.70
2018-01-24T23:13:17.435Z,67.90
2018-01-24T23:15:45.459Z,67.60
2018-01-24T23:18:13.509Z,68.40
2018-01-24T23:20:41.569Z,69.00
2018-01-24T23:23:10.369Z,69.60
2018-01-24T23:25:39.198Z,68.90
2018-01-24T23:28:07.229Z,68.90
2018-01-24T23:30:35.284Z,69.10
2018-01-24T23:33:03.337Z,69.60
2018-01-24T23:35:31.376Z,68.50
2018-01-24T23:37:59.434Z,68.40
2018-01-24T23:40:27.559Z,68.60
2018-01-24T23:42:55.552Z,68.70
2018-01-24T23:45:24.377Z,68.20
2018-01-24T23:47:52.449Z,68.10
2018-01-24T23:50:21.240Z,67.60
2018-01-24T23:52:50.057Z,67.40
2018-01-24T23:55:18.114Z,67.30
2018-01-24T23:57:46.132Z,67.80
